sensor_id;sensor_type;location;lat;lon;timestamp;temperature;humidity
20722;DHT22;10522;52.198;9.890;2023-12-04T00:01:47;-1.30;99.90
20722;DHT22;10522;52.198;9.890;2023-12-04T00:04:13;-1.30;99.90
20722;DHT22;10522;52.198;9.890;2023-12-04T00:06:39;-1.30;99.90
20722;DHT22;10522;52.198;9.890;2023-12-04T00:09:05;-1.30;99.90
20722;DHT22;10522;52.198;9.890;2023-12-04T00:11:31;-1.30;99.90
20722;DHT22;10522;52.198;9.890;2023-12-04T00:13:58;-1.30;99.90
20722;DHT22;10522;52.198;9.890;2023-12-04T00:16:23;-1.30;99.90
20722;DHT22;10522;52.198;9.890;2023-12-04T00:18:49;-1.30;99.90
20722;DHT22;10522;52.198;9.890;2023-12-04T00:21:14;-1.40;99.90
20722;DHT22;10522;52.198;9.890;2023-12-04T00:23:40;-1.30;99.90
20722;DHT22;10522;52.198;9.890;2023-12-04T00:26:06;-1.30;99.90
20722;DHT22;10522;52.198;9.890;2023-12-04T00:28:31;-1.30;99.90
20722;DHT22;10522;52.198;9.890;2023-12-04T00:30:57;-1.20;99.90
20722;DHT22;10522;52.198;9.890;2023-12-04T00:33:22;-1.20;99.90
20722;DHT22;10522;52.198;9.890;2023-12-04T00:35:48;-1.20;99.90
20722;DHT22;10522;52.198;9.890;2023-12-04T00:38:14;-1.20;99.90
20722;DHT22;10522;52.198;9.890;2023-12-04T00:40:39;-1.10;99.90
20722;DHT22;10522;52.198;9.890;2023-12-04T00:43:05;-1.10;99.90
20722;DHT22;10522;52.198;9.890;2023-12-04T00:45:31;-1.10;99.90
20722;DHT22;10522;52.198;9.890;2023-12-04T00:47:56;-1.10;99.90
20722;DHT22;10522;52.198;9.890;2023-12-04T00:50:22;-1.10;99.90
20722;DHT22;10522;52.198;9.890;2023-12-04T00:52:48;-1.10;99.90
20722;DHT22;10522;52.198;9.890;2023-12-04T00:55:13;-1.10;99.90
20722;DHT22;10522;52.198;9.890;2023-12-04T00:57:39;-1.20;99.90
20722;DHT22;10522;52.198;9.890;2023-12-04T01:00:05;-1.20;99.90
20722;DHT22;10522;52.198;9.890;2023-12-04T01:02:31;-1.20;99.90
20722;DHT22;10522;52.198;9.890;2023-12-04T01:04:56;-1.20;99.90
20722;DHT22;10522;52.198;9.890;2023-12-04T01:07:22;-1.20;99.90
20722;DHT22;10522;52.198;9.890;2023-12-04T01:09:47;-1.20;99.90
20722;DHT22;10522;52.198;9.890;2023-12-04T01:12:13;-1.20;99.90
20722;DHT22;10522;52.198;9.890;2023-12-04T01:14:39;-1.20;99.90
20722;DHT22;10522;52.198;9.890;2023-12-04T01:17:04;-1.20;99.90
20722;DHT22;10522;52.198;9.890;2023-12-04T01:19:31;-1.10;99.90
20722;DHT22;10522;52.198;9.890;2023-12-04T01:21:57;-1.10;99.90
20722;DHT22;10522;52.198;9.890;2023-12-04T01:24:23;-1.10;99.90
20722;DHT22;10522;52.198;9.890;2023-12-04T01:26:48;-1.10;99.90
20722;DHT22;10522;52.198;9.890;2023-12-04T01:29:14;-1.10;99.90
20722;DHT22;10522;52.198;9.890;2023-12-04T01:31:39;-1.10;99.90
20722;DHT22;10522;52.198;9.890;2023-12-04T01:34:05;-1.10;99.90
20722;DHT22;10522;52.198;9.890;2023-12-04T01:36:31;-1.10;99.90
20722;DHT22;10522;52.198;9.890;2023-12-04T01:38:56;-1.10;99.90
20722;DHT22;10522;52.198;9.890;2023-12-04T01:41:22;-1.10;99.90
20722;DHT22;10522;52.198;9.890;2023-12-04T01:43:47;-1.10;99.90
20722;DHT22;10522;52.198;9.890;2023-12-04T01:46:16;-1.10;99.90
20722;DHT22;10522;52.198;9.890;2023-12-04T01:48:44;-1.00;99.90
20722;DHT22;10522;52.198;9.890;2023-12-04T01:51:11;-1.00;99.90
20722;DHT22;10522;52.198;9.890;2023-12-04T01:53:38;-1.00;99.90
20722;DHT22;10522;52.198;9.890;2023-12-04T01:56:05;-1.00;99.90
20722;DHT22;10522;52.198;9.890;2023-12-04T01:58:32;-1.00;99.90
20722;DHT22;10522;52.198;9.890;2023-12-04T02:00:58;-1.10;99.90
20722;DHT22;10522;52.198;9.890;2023-12-04T02:03:24;-1.10;99.90
20722;DHT22;10522;52.198;9.890;2023-12-04T02:05:51;-1.10;99.90
20722;DHT22;10522;52.198;9.890;2023-12-04T02:08:18;-1.10;99.90
20722;DHT22;10522;52.198;9.890;2023-12-04T02:10:44;-1.10;99.90
20722;DHT22;10522;52.198;9.890;2023-12-04T02:13:10;-1.10;99.90
20722;DHT22;10522;52.198;9.890;2023-12-04T02:15:36;-1.00;99.90
20722;DHT22;10522;52.198;9.890;2023-12-04T02:18:03;-1.00;99.90
20722;DHT22;10522;52.198;9.890;2023-12-04T02:20:35;-1.00;99.90
20722;DHT22;10522;52.198;9.890;2023-12-04T02:23:01;-1.00;99.90
20722;DHT22;10522;52.198;9.890;2023-12-04T02:25:28;-1.00;99.90
20722;DHT22;10522;52.198;9.890;2023-12-04T02:27:54;-1.00;99.90
20722;DHT22;10522;52.198;9.890;2023-12-04T02:30:23;-0.90;99.90
20722;DHT22;10522;52.198;9.890;2023-12-04T02:32:50;-0.90;99.90
20722;DHT22;10522;52.198;9.890;2023-12-04T02:35:20;-0.90;99.90
20722;DHT22;10522;52.198;9.890;2023-12-04T02:37:47;-0.90;99.90
20722;DHT22;10522;52.198;9.890;2023-12-04T02:40:13;-0.90;99.90
20722;DHT22;10522;52.198;9.890;2023-12-04T02:42:39;-0.90;99.90
20722;DHT22;10522;52.198;9.890;2023-12-04T02:45:05;-0.90;99.90
20722;DHT22;10522;52.198;9.890;2023-12-04T02:47:31;-0.90;99.90
20722;DHT22;10522;52.198;9.890;2023-12-04T02:49:57;-0.90;99.90
20722;DHT22;10522;52.198;9.890;2023-12-04T02:52:22;-0.90;99.90
20722;DHT22;10522;52.198;9.890;2023-12-04T02:54:48;-0.80;99.90
20722;DHT22;10522;52.198;9.890;2023-12-04T02:57:13;-0.90;99.90
20722;DHT22;10522;52.198;9.890;2023-12-04T02:59:39;-0.90;99.90
20722;DHT22;10522;52.198;9.890;2023-12-04T03:02:04;-0.90;99.90
20722;DHT22;10522;52.198;9.890;2023-12-04T03:04:30;-0.90;99.90
20722;DHT22;10522;52.198;9.890;2023-12-04T03:06:56;-0.80;99.90
20722;DHT22;10522;52.198;9.890;2023-12-04T03:09:22;-0.80;99.90
20722;DHT22;10522;52.198;9.890;2023-12-04T03:11:47;-0.80;99.90
20722;DHT22;10522;52.198;9.890;2023-12-04T03:14:13;-0.80;99.90
20722;DHT22;10522;52.198;9.890;2023-12-04T03:16:39;-0.80;99.90
20722;DHT22;10522;52.198;9.890;2023-12-04T03:19:05;-0.70;99.90
20722;DHT22;10522;52.198;9.890;2023-12-04T03:21:31;-0.70;99.90
20722;DHT22;10522;52.198;9.890;2023-12-04T03:23:56;-0.80;99.90
20722;DHT22;10522;52.198;9.890;2023-12-04T03:26:22;-0.80;99.90
20722;DHT22;10522;52.198;9.890;2023-12-04T03:28:47;-0.80;99.90
20722;DHT22;10522;52.198;9.890;2023-12-04T03:31:13;-0.70;99.90
20722;DHT22;10522;52.198;9.890;2023-12-04T03:33:38;-0.70;99.90
20722;DHT22;10522;52.198;9.890;2023-12-04T03:36:04;-0.70;99.90
20722;DHT22;10522;52.198;9.890;2023-12-04T03:38:30;-0.70;99.90
20722;DHT22;10522;52.198;9.890;2023-12-04T03:40:56;-0.70;99.90
20722;DHT22;10522;52.198;9.890;2023-12-04T03:43:21;-0.70;99.90
20722;DHT22;10522;52.198;9.890;2023-12-04T03:45:47;-0.60;99.90
20722;DHT22;10522;52.198;9.890;2023-12-04T03:48:12;-0.60;99.90
20722;DHT22;10522;52.198;9.890;2023-12-04T03:50:38;-0.60;99.90
20722;DHT22;10522;52.198;9.890;2023-12-04T03:53:04;-0.70;99.90
20722;DHT22;10522;52.198;9.890;2023-12-04T03:55:29;-0.70;99.90
20722;DHT22;10522;52.198;9.890;2023-12-04T03:57:55;-0.70;99.90
20722;DHT22;10522;52.198;9.890;2023-12-04T04:00:22;-0.60;99.90
20722;DHT22;10522;52.198;9.890;2023-12-04T04:02:48;-0.60;99.90
20722;DHT22;10522;52.198;9.890;2023-12-04T04:05:14;-0.60;99.90
20722;DHT22;10522;52.198;9.890;2023-12-04T04:07:40;-0.60;99.90
20722;DHT22;10522;52.198;9.890;2023-12-04T04:10:06;-0.60;99.90
20722;DHT22;10522;52.198;9.890;2023-12-04T04:12:32;-0.60;99.90
20722;DHT22;10522;52.198;9.890;2023-12-04T04:14:58;-0.50;99.90
20722;DHT22;10522;52.198;9.890;2023-12-04T04:17:24;-0.50;99.90
20722;DHT22;10522;52.198;9.890;2023-12-04T04:19:53;-0.40;99.90
20722;DHT22;10522;52.198;9.890;2023-12-04T04:22:20;-0.40;99.90
20722;DHT22;10522;52.198;9.890;2023-12-04T04:24:46;-0.40;99.90
20722;DHT22;10522;52.198;9.890;2023-12-04T04:27:12;-0.40;99.90
20722;DHT22;10522;52.198;9.890;2023-12-04T04:29:37;-0.40;99.90
20722;DHT22;10522;52.198;9.890;2023-12-04T04:32:03;-0.60;99.90
20722;DHT22;10522;52.198;9.890;2023-12-04T04:34:29;-0.50;99.90
20722;DHT22;10522;52.198;9.890;2023-12-04T04:36:55;-0.50;99.90
20722;DHT22;10522;52.198;9.890;2023-12-04T04:39:20;-0.50;99.90
20722;DHT22;10522;52.198;9.890;2023-12-04T04:41:46;-0.50;99.90
20722;DHT22;10522;52.198;9.890;2023-12-04T04:44:11;-0.50;99.90
20722;DHT22;10522;52.198;9.890;2023-12-04T04:46:37;-0.40;99.90
20722;DHT22;10522;52.198;9.890;2023-12-04T04:49:02;-0.40;99.90
20722;DHT22;10522;52.198;9.890;2023-12-04T04:51:32;-0.40;99.90
20722;DHT22;10522;52.198;9.890;2023-12-04T04:53:57;-0.40;99.90
20722;DHT22;10522;52.198;9.890;2023-12-04T04:56:23;-0.40;99.90
20722;DHT22;10522;52.198;9.890;2023-12-04T04:58:49;-0.40;99.90
20722;DHT22;10522;52.198;9.890;2023-12-04T05:01:14;-0.40;99.90
20722;DHT22;10522;52.198;9.890;2023-12-04T05:03:40;-0.40;99.90
20722;DHT22;10522;52.198;9.890;2023-12-04T05:06:06;-0.40;99.90
20722;DHT22;10522;52.198;9.890;2023-12-04T05:08:32;-0.40;99.90
20722;DHT22;10522;52.198;9.890;2023-12-04T05:10:57;-0.40;99.90
20722;DHT22;10522;52.198;9.890;2023-12-04T05:13:23;-0.40;99.90
20722;DHT22;10522;52.198;9.890;2023-12-04T05:15:48;-0.40;99.90
20722;DHT22;10522;52.198;9.890;2023-12-04T05:18:14;-0.40;99.90
20722;DHT22;10522;52.198;9.890;2023-12-04T05:20:40;-0.40;99.90
20722;DHT22;10522;52.198;9.890;2023-12-04T05:23:05;-0.40;99.90
20722;DHT22;10522;52.198;9.890;2023-12-04T05:25:31;-0.40;99.90
20722;DHT22;10522;52.198;9.890;2023-12-04T05:27:56;-0.40;99.90
20722;DHT22;10522;52.198;9.890;2023-12-04T05:30:22;-0.40;99.90
20722;DHT22;10522;52.198;9.890;2023-12-04T05:32:47;-0.50;99.90
20722;DHT22;10522;52.198;9.890;2023-12-04T05:35:15;-0.50;99.90
20722;DHT22;10522;52.198;9.890;2023-12-04T05:37:41;-0.50;99.90
20722;DHT22;10522;52.198;9.890;2023-12-04T05:40:08;-0.40;99.90
20722;DHT22;10522;52.198;9.890;2023-12-04T05:42:33;-0.40;99.90
20722;DHT22;10522;52.198;9.890;2023-12-04T05:44:59;-0.40;99.90
20722;DHT22;10522;52.198;9.890;2023-12-04T05:47:26;-0.40;99.90
20722;DHT22;10522;52.198;9.890;2023-12-04T05:49:51;-0.40;99.90
20722;DHT22;10522;52.198;9.890;2023-12-04T05:52:17;-0.40;99.90
20722;DHT22;10522;52.198;9.890;2023-12-04T05:54:43;-0.30;99.90
20722;DHT22;10522;52.198;9.890;2023-12-04T05:57:08;-0.30;99.90
20722;DHT22;10522;52.198;9.890;2023-12-04T05:59:34;-0.30;99.90
20722;DHT22;10522;52.198;9.890;2023-12-04T06:02:00;-0.40;99.90
20722;DHT22;10522;52.198;9.890;2023-12-04T06:04:26;-0.40;99.90
20722;DHT22;10522;52.198;9.890;2023-12-04T06:06:52;-0.30;99.90
20722;DHT22;10522;52.198;9.890;2023-12-04T06:09:17;-0.30;99.90
20722;DHT22;10522;52.198;9.890;2023-12-04T06:11:43;-0.30;99.90
20722;DHT22;10522;52.198;9.890;2023-12-04T06:14:08;-0.30;99.90
20722;DHT22;10522;52.198;9.890;2023-12-04T06:16:34;-0.40;99.90
20722;DHT22;10522;52.198;9.890;2023-12-04T06:18:59;-0.40;99.90
20722;DHT22;10522;52.198;9.890;2023-12-04T06:21:25;-0.40;99.90
20722;DHT22;10522;52.198;9.890;2023-12-04T06:23:51;-0.40;99.90
20722;DHT22;10522;52.198;9.890;2023-12-04T06:26:16;-0.50;99.90
20722;DHT22;10522;52.198;9.890;2023-12-04T06:28:43;-0.50;99.90
20722;DHT22;10522;52.198;9.890;2023-12-04T06:31:09;-0.50;99.90
20722;DHT22;10522;52.198;9.890;2023-12-04T06:33:35;-0.50;99.90
20722;DHT22;10522;52.198;9.890;2023-12-04T06:36:02;-0.50;99.90
20722;DHT22;10522;52.198;9.890;2023-12-04T06:38:32;-0.50;99.90
20722;DHT22;10522;52.198;9.890;2023-12-04T06:40:59;-0.50;99.90
20722;DHT22;10522;52.198;9.890;2023-12-04T06:43:25;-0.50;99.90
20722;DHT22;10522;52.198;9.890;2023-12-04T06:45:51;-0.40;99.90
20722;DHT22;10522;52.198;9.890;2023-12-04T06:48:17;-0.40;99.90
20722;DHT22;10522;52.198;9.890;2023-12-04T06:50:43;-0.40;99.90
20722;DHT22;10522;52.198;9.890;2023-12-04T06:53:08;-0.30;99.90
20722;DHT22;10522;52.198;9.890;2023-12-04T06:55:34;-0.30;99.90
20722;DHT22;10522;52.198;9.890;2023-12-04T06:57:59;-0.30;99.90
20722;DHT22;10522;52.198;9.890;2023-12-04T07:00:25;-0.30;99.90
20722;DHT22;10522;52.198;9.890;2023-12-04T07:02:51;-0.30;99.90
20722;DHT22;10522;52.198;9.890;2023-12-04T07:05:18;-0.30;99.90
20722;DHT22;10522;52.198;9.890;2023-12-04T07:07:44;-0.30;99.90
20722;DHT22;10522;52.198;9.890;2023-12-04T07:10:10;-0.30;99.90
20722;DHT22;10522;52.198;9.890;2023-12-04T07:12:42;-0.30;99.90
20722;DHT22;10522;52.198;9.890;2023-12-04T07:15:09;-0.20;99.90
20722;DHT22;10522;52.198;9.890;2023-12-04T07:17:35;-0.20;99.90
20722;DHT22;10522;52.198;9.890;2023-12-04T07:20:01;-0.10;99.90
20722;DHT22;10522;52.198;9.890;2023-12-04T07:22:27;-0.10;99.90
20722;DHT22;10522;52.198;9.890;2023-12-04T07:24:52;-0.20;99.90
20722;DHT22;10522;52.198;9.890;2023-12-04T07:27:18;-0.10;99.90
20722;DHT22;10522;52.198;9.890;2023-12-04T07:29:43;-0.10;99.90
20722;DHT22;10522;52.198;9.890;2023-12-04T07:32:09;-0.10;99.90
20722;DHT22;10522;52.198;9.890;2023-12-04T07:34:34;-0.10;99.90
20722;DHT22;10522;52.198;9.890;2023-12-04T07:37:00;-0.10;99.90
20722;DHT22;10522;52.198;9.890;2023-12-04T07:39:25;-0.10;99.90
20722;DHT22;10522;52.198;9.890;2023-12-04T07:41:51;0.00;99.90
20722;DHT22;10522;52.198;9.890;2023-12-04T07:44:18;0.00;99.90
20722;DHT22;10522;52.198;9.890;2023-12-04T07:46:43;0.00;99.90
20722;DHT22;10522;52.198;9.890;2023-12-04T07:49:09;0.10;99.90
20722;DHT22;10522;52.198;9.890;2023-12-04T07:51:34;0.00;99.90
20722;DHT22;10522;52.198;9.890;2023-12-04T07:54:00;0.00;99.90
20722;DHT22;10522;52.198;9.890;2023-12-04T07:56:26;0.00;99.90
20722;DHT22;10522;52.198;9.890;2023-12-04T07:58:52;0.10;99.90
20722;DHT22;10522;52.198;9.890;2023-12-04T08:01:17;0.00;99.90
20722;DHT22;10522;52.198;9.890;2023-12-04T08:03:43;0.00;99.90
20722;DHT22;10522;52.198;9.890;2023-12-04T08:06:08;0.00;99.90
20722;DHT22;10522;52.198;9.890;2023-12-04T08:08:34;0.10;99.90
20722;DHT22;10522;52.198;9.890;2023-12-04T08:11:00;0.10;99.90
20722;DHT22;10522;52.198;9.890;2023-12-04T08:13:25;0.10;99.90
20722;DHT22;10522;52.198;9.890;2023-12-04T08:15:51;0.10;99.90
20722;DHT22;10522;52.198;9.890;2023-12-04T08:18:17;0.10;99.90
20722;DHT22;10522;52.198;9.890;2023-12-04T08:20:42;0.10;99.90
20722;DHT22;10522;52.198;9.890;2023-12-04T08:23:08;0.10;99.90
20722;DHT22;10522;52.198;9.890;2023-12-04T08:25:34;0.10;99.90
20722;DHT22;10522;52.198;9.890;2023-12-04T08:28:01;0.10;99.90
20722;DHT22;10522;52.198;9.890;2023-12-04T08:30:27;0.10;99.90
20722;DHT22;10522;52.198;9.890;2023-12-04T08:32:53;0.10;99.90
20722;DHT22;10522;52.198;9.890;2023-12-04T08:35:19;0.00;99.90
20722;DHT22;10522;52.198;9.890;2023-12-04T08:37:45;0.00;99.90
20722;DHT22;10522;52.198;9.890;2023-12-04T08:40:11;0.00;99.90
20722;DHT22;10522;52.198;9.890;2023-12-04T08:42:37;0.10;99.90
20722;DHT22;10522;52.198;9.890;2023-12-04T08:45:04;0.10;99.90
20722;DHT22;10522;52.198;9.890;2023-12-04T08:47:31;0.10;99.90
20722;DHT22;10522;52.198;9.890;2023-12-04T08:49:57;0.10;99.90
20722;DHT22;10522;52.198;9.890;2023-12-04T08:52:22;0.10;99.90
20722;DHT22;10522;52.198;9.890;2023-12-04T08:54:48;0.10;99.90
20722;DHT22;10522;52.198;9.890;2023-12-04T08:57:14;0.20;99.90
20722;DHT22;10522;52.198;9.890;2023-12-04T08:59:39;0.20;99.90
20722;DHT22;10522;52.198;9.890;2023-12-04T09:02:05;0.20;99.90
20722;DHT22;10522;52.198;9.890;2023-12-04T09:04:31;0.20;99.90
20722;DHT22;10522;52.198;9.890;2023-12-04T09:06:57;0.30;99.90
20722;DHT22;10522;52.198;9.890;2023-12-04T09:09:23;0.30;99.90
20722;DHT22;10522;52.198;9.890;2023-12-04T09:11:48;0.30;99.90
20722;DHT22;10522;52.198;9.890;2023-12-04T09:14:14;0.40;99.90
20722;DHT22;10522;52.198;9.890;2023-12-04T09:16:40;0.40;99.90
20722;DHT22;10522;52.198;9.890;2023-12-04T09:19:05;0.40;99.90
20722;DHT22;10522;52.198;9.890;2023-12-04T09:21:31;0.40;99.90
20722;DHT22;10522;52.198;9.890;2023-12-04T09:23:56;0.40;99.90
20722;DHT22;10522;52.198;9.890;2023-12-04T09:26:22;0.50;99.90
20722;DHT22;10522;52.198;9.890;2023-12-04T09:28:48;0.50;99.90
20722;DHT22;10522;52.198;9.890;2023-12-04T09:31:14;0.70;99.90
20722;DHT22;10522;52.198;9.890;2023-12-04T09:33:39;0.70;99.90
20722;DHT22;10522;52.198;9.890;2023-12-04T09:36:05;0.80;99.90
20722;DHT22;10522;52.198;9.890;2023-12-04T09:38:31;0.90;99.90
20722;DHT22;10522;52.198;9.890;2023-12-04T09:41:00;0.80;99.90
20722;DHT22;10522;52.198;9.890;2023-12-04T09:43:30;0.90;99.90
20722;DHT22;10522;52.198;9.890;2023-12-04T09:45:56;0.90;99.90
20722;DHT22;10522;52.198;9.890;2023-12-04T09:48:24;0.90;99.90
20722;DHT22;10522;52.198;9.890;2023-12-04T09:50:51;1.00;99.90
20722;DHT22;10522;52.198;9.890;2023-12-04T09:53:17;1.00;99.90
20722;DHT22;10522;52.198;9.890;2023-12-04T09:55:43;1.00;99.90
20722;DHT22;10522;52.198;9.890;2023-12-04T09:58:11;1.00;99.90
20722;DHT22;10522;52.198;9.890;2023-12-04T10:00:40;0.90;99.90
20722;DHT22;10522;52.198;9.890;2023-12-04T10:03:07;1.00;99.90
20722;DHT22;10522;52.198;9.890;2023-12-04T10:05:32;1.00;99.90
20722;DHT22;10522;52.198;9.890;2023-12-04T10:07:58;0.90;99.90
20722;DHT22;10522;52.198;9.890;2023-12-04T10:10:24;0.90;99.90
20722;DHT22;10522;52.198;9.890;2023-12-04T10:12:50;0.90;99.90
20722;DHT22;10522;52.198;9.890;2023-12-04T10:15:16;1.10;99.90
20722;DHT22;10522;52.198;9.890;2023-12-04T10:17:42;1.00;99.90
20722;DHT22;10522;52.198;9.890;2023-12-04T10:20:09;1.00;99.90
20722;DHT22;10522;52.198;9.890;2023-12-04T10:22:59;0.90;99.90
20722;DHT22;10522;52.198;9.890;2023-12-04T10:25:29;0.90;99.90
20722;DHT22;10522;52.198;9.890;2023-12-04T10:28:10;1.00;99.90
20722;DHT22;10522;52.198;9.890;2023-12-04T10:30:36;0.90;99.90
20722;DHT22;10522;52.198;9.890;2023-12-04T10:33:03;1.00;99.90
20722;DHT22;10522;52.198;9.890;2023-12-04T10:35:34;1.10;99.90
20722;DHT22;10522;52.198;9.890;2023-12-04T10:38:03;1.00;99.90
20722;DHT22;10522;52.198;9.890;2023-12-04T10:40:33;1.10;99.90
20722;DHT22;10522;52.198;9.890;2023-12-04T10:43:22;1.10;99.90
20722;DHT22;10522;52.198;9.890;2023-12-04T10:45:50;1.10;99.90
20722;DHT22;10522;52.198;9.890;2023-12-04T10:48:17;1.20;99.90
20722;DHT22;10522;52.198;9.890;2023-12-04T10:50:48;1.20;99.90
20722;DHT22;10522;52.198;9.890;2023-12-04T10:53:16;1.20;99.90
20722;DHT22;10522;52.198;9.890;2023-12-04T10:55:42;1.10;99.90
20722;DHT22;10522;52.198;9.890;2023-12-04T10:58:14;1.10;99.90
20722;DHT22;10522;52.198;9.890;2023-12-04T11:00:46;1.20;99.90
20722;DHT22;10522;52.198;9.890;2023-12-04T11:03:28;1.20;99.90
20722;DHT22;10522;52.198;9.890;2023-12-04T11:06:00;1.20;99.90
20722;DHT22;10522;52.198;9.890;2023-12-04T11:08:29;1.20;99.90
20722;DHT22;10522;52.198;9.890;2023-12-04T11:11:01;1.20;99.90
20722;DHT22;10522;52.198;9.890;2023-12-04T11:13:35;1.20;99.90
20722;DHT22;10522;52.198;9.890;2023-12-04T11:16:09;1.20;99.90
20722;DHT22;10522;52.198;9.890;2023-12-04T11:18:38;1.30;99.90
20722;DHT22;10522;52.198;9.890;2023-12-04T11:21:08;1.20;99.90
20722;DHT22;10522;52.198;9.890;2023-12-04T11:23:35;1.20;99.90
20722;DHT22;10522;52.198;9.890;2023-12-04T11:26:02;1.20;99.90
20722;DHT22;10522;52.198;9.890;2023-12-04T11:28:30;1.20;99.90
20722;DHT22;10522;52.198;9.890;2023-12-04T11:30:57;1.20;99.90
20722;DHT22;10522;52.198;9.890;2023-12-04T11:33:23;1.20;99.90
20722;DHT22;10522;52.198;9.890;2023-12-04T11:35:50;1.10;99.90
20722;DHT22;10522;52.198;9.890;2023-12-04T11:38:19;1.10;99.90
20722;DHT22;10522;52.198;9.890;2023-12-04T11:40:48;1.20;99.90
20722;DHT22;10522;52.198;9.890;2023-12-04T11:43:25;1.20;99.90
20722;DHT22;10522;52.198;9.890;2023-12-04T11:45:51;1.30;99.90
20722;DHT22;10522;52.198;9.890;2023-12-04T11:48:16;1.30;99.90
20722;DHT22;10522;52.198;9.890;2023-12-04T11:50:45;1.30;99.90
20722;DHT22;10522;52.198;9.890;2023-12-04T11:53:11;1.30;99.90
20722;DHT22;10522;52.198;9.890;2023-12-04T11:55:40;1.50;99.90
20722;DHT22;10522;52.198;9.890;2023-12-04T11:58:11;1.50;99.90
20722;DHT22;10522;52.198;9.890;2023-12-04T12:00:37;1.60;99.90
20722;DHT22;10522;52.198;9.890;2023-12-04T12:03:05;1.60;99.90
20722;DHT22;10522;52.198;9.890;2023-12-04T12:05:32;1.60;99.90
20722;DHT22;10522;52.198;9.890;2023-12-04T12:08:02;1.60;99.90
20722;DHT22;10522;52.198;9.890;2023-12-04T12:10:29;1.70;99.90
20722;DHT22;10522;52.198;9.890;2023-12-04T12:12:55;1.70;99.90
20722;DHT22;10522;52.198;9.890;2023-12-04T12:15:21;1.70;99.90
20722;DHT22;10522;52.198;9.890;2023-12-04T12:17:46;1.70;99.90
20722;DHT22;10522;52.198;9.890;2023-12-04T12:20:13;1.70;99.90
20722;DHT22;10522;52.198;9.890;2023-12-04T12:22:39;1.70;99.90
20722;DHT22;10522;52.198;9.890;2023-12-04T12:25:10;1.70;99.90
20722;DHT22;10522;52.198;9.890;2023-12-04T12:27:37;1.70;99.90
20722;DHT22;10522;52.198;9.890;2023-12-04T12:30:03;1.60;99.90
20722;DHT22;10522;52.198;9.890;2023-12-04T12:32:31;1.60;99.90
20722;DHT22;10522;52.198;9.890;2023-12-04T12:34:56;1.50;99.90
20722;DHT22;10522;52.198;9.890;2023-12-04T12:37:22;1.50;99.90
20722;DHT22;10522;52.198;9.890;2023-12-04T12:39:48;1.30;99.90
20722;DHT22;10522;52.198;9.890;2023-12-04T12:42:28;1.40;99.90
20722;DHT22;10522;52.198;9.890;2023-12-04T12:44:54;1.40;99.90
20722;DHT22;10522;52.198;9.890;2023-12-04T12:47:21;1.50;99.90
20722;DHT22;10522;52.198;9.890;2023-12-04T12:49:47;1.50;99.90
20722;DHT22;10522;52.198;9.890;2023-12-04T12:52:14;1.50;99.90
20722;DHT22;10522;52.198;9.890;2023-12-04T12:54:40;1.50;99.90
20722;DHT22;10522;52.198;9.890;2023-12-04T12:57:06;1.60;99.90
20722;DHT22;10522;52.198;9.890;2023-12-04T12:59:33;1.60;99.90
20722;DHT22;10522;52.198;9.890;2023-12-04T13:01:59;1.60;99.90
20722;DHT22;10522;52.198;9.890;2023-12-04T13:04:36;1.70;99.90
20722;DHT22;10522;52.198;9.890;2023-12-04T13:07:02;1.50;99.90
20722;DHT22;10522;52.198;9.890;2023-12-04T13:09:35;1.50;99.90
20722;DHT22;10522;52.198;9.890;2023-12-04T13:12:04;1.50;99.90
20722;DHT22;10522;52.198;9.890;2023-12-04T13:14:30;1.60;99.90
20722;DHT22;10522;52.198;9.890;2023-12-04T13:16:55;1.60;99.90
20722;DHT22;10522;52.198;9.890;2023-12-04T13:19:22;1.50;99.90
20722;DHT22;10522;52.198;9.890;2023-12-04T13:21:48;1.50;99.90
20722;DHT22;10522;52.198;9.890;2023-12-04T13:24:13;1.50;99.90
20722;DHT22;10522;52.198;9.890;2023-12-04T13:26:39;1.50;99.90
20722;DHT22;10522;52.198;9.890;2023-12-04T13:29:05;1.50;99.90
20722;DHT22;10522;52.198;9.890;2023-12-04T13:31:33;1.50;99.90
20722;DHT22;10522;52.198;9.890;2023-12-04T13:33:58;1.50;99.90
20722;DHT22;10522;52.198;9.890;2023-12-04T13:36:24;1.50;99.90
20722;DHT22;10522;52.198;9.890;2023-12-04T13:38:49;1.50;99.90
20722;DHT22;10522;52.198;9.890;2023-12-04T13:41:15;1.50;99.90
20722;DHT22;10522;52.198;9.890;2023-12-04T13:43:59;1.50;99.90
20722;DHT22;10522;52.198;9.890;2023-12-04T13:46:25;1.50;99.90
20722;DHT22;10522;52.198;9.890;2023-12-04T13:48:52;1.50;99.90
20722;DHT22;10522;52.198;9.890;2023-12-04T13:51:18;1.50;99.90
20722;DHT22;10522;52.198;9.890;2023-12-04T13:53:45;1.50;99.90
20722;DHT22;10522;52.198;9.890;2023-12-04T13:56:14;1.40;99.90
20722;DHT22;10522;52.198;9.890;2023-12-04T13:58:49;1.40;99.90
20722;DHT22;10522;52.198;9.890;2023-12-04T14:01:25;1.40;99.90
20722;DHT22;10522;52.198;9.890;2023-12-04T14:03:54;1.40;99.90
20722;DHT22;10522;52.198;9.890;2023-12-04T14:06:20;1.40;99.90
20722;DHT22;10522;52.198;9.890;2023-12-04T14:08:46;1.30;99.90
20722;DHT22;10522;52.198;9.890;2023-12-04T14:11:12;1.30;99.90
20722;DHT22;10522;52.198;9.890;2023-12-04T14:13:39;1.30;99.90
20722;DHT22;10522;52.198;9.890;2023-12-04T14:16:05;1.30;99.90
20722;DHT22;10522;52.198;9.890;2023-12-04T14:18:31;1.30;99.90
20722;DHT22;10522;52.198;9.890;2023-12-04T14:20:57;1.30;99.90
20722;DHT22;10522;52.198;9.890;2023-12-04T14:23:23;1.30;99.90
20722;DHT22;10522;52.198;9.890;2023-12-04T14:25:49;1.20;99.90
20722;DHT22;10522;52.198;9.890;2023-12-04T14:28:14;1.20;99.90
20722;DHT22;10522;52.198;9.890;2023-12-04T14:30:40;1.20;99.90
20722;DHT22;10522;52.198;9.890;2023-12-04T14:33:06;1.20;99.90
20722;DHT22;10522;52.198;9.890;2023-12-04T14:35:32;1.20;99.90
20722;DHT22;10522;52.198;9.890;2023-12-04T14:37:57;1.10;99.90
20722;DHT22;10522;52.198;9.890;2023-12-04T14:40:23;1.10;99.90
20722;DHT22;10522;52.198;9.890;2023-12-04T14:42:49;1.10;99.90
20722;DHT22;10522;52.198;9.890;2023-12-04T14:45:14;1.20;99.90
20722;DHT22;10522;52.198;9.890;2023-12-04T14:47:41;1.10;99.90
20722;DHT22;10522;52.198;9.890;2023-12-04T14:50:08;1.20;99.90
20722;DHT22;10522;52.198;9.890;2023-12-04T14:52:35;1.10;99.90
20722;DHT22;10522;52.198;9.890;2023-12-04T14:55:05;1.10;99.90
20722;DHT22;10522;52.198;9.890;2023-12-04T14:57:34;1.10;99.90
20722;DHT22;10522;52.198;9.890;2023-12-04T15:00:09;1.20;99.90
20722;DHT22;10522;52.198;9.890;2023-12-04T15:03:04;1.10;99.90
20722;DHT22;10522;52.198;9.890;2023-12-04T15:05:34;1.10;99.90
20722;DHT22;10522;52.198;9.890;2023-12-04T15:08:22;1.10;99.90
20722;DHT22;10522;52.198;9.890;2023-12-04T15:11:07;1.10;99.90
20722;DHT22;10522;52.198;9.890;2023-12-04T15:13:45;1.10;99.90
20722;DHT22;10522;52.198;9.890;2023-12-04T15:16:40;1.20;99.90
20722;DHT22;10522;52.198;9.890;2023-12-04T15:19:12;1.10;99.90
20722;DHT22;10522;52.198;9.890;2023-12-04T15:21:38;1.10;99.90
20722;DHT22;10522;52.198;9.890;2023-12-04T15:24:05;1.10;99.90
20722;DHT22;10522;52.198;9.890;2023-12-04T15:26:32;1.10;99.90
20722;DHT22;10522;52.198;9.890;2023-12-04T15:28:58;1.20;99.90
20722;DHT22;10522;52.198;9.890;2023-12-04T15:31:23;1.20;99.90
20722;DHT22;10522;52.198;9.890;2023-12-04T15:33:49;1.20;99.90
20722;DHT22;10522;52.198;9.890;2023-12-04T15:36:15;1.30;99.90